<?xml version="1.0" encoding="UTF-8" standalone="no" ?>
<gpx xmlns="http://www.topografix.com/GPX/1/1" xmlns:xsi="http://www.w3.org/2001/XMLSchema-instance" xsi:schemaLocation="http://www.topografix.com/GPX/1/1 http://www.topografix.com/GPX/1/1/gpx.xsd" version="1.1" creator="VisuGPX - https://www.visugpx.com">
  <metadata>
    <name>LIMERZEL (aprés-midi)</name>
    <desc><![CDATA[parcours assez long, avec beaucoup de dénivelés, demande un bon entrainement.]]></desc>
  </metadata>
  <trk>
    <name><![CDATA[LIMERZEL (aprés-midi)_1]]></name>
    <trkseg>
      <trkpt lat="47.63617" lon="-2.35334">
        <ele>56</ele>
        <time>2014-03-21T11:44:14Z</time>
      </trkpt>
      <trkpt lat="47.63617" lon="-2.35331">
        <ele>55</ele>
        <time>2014-03-21T11:44:44Z</time>
      </trkpt>
      <trkpt lat="47.63617" lon="-2.3533">
        <ele>55</ele>
        <time>2014-03-21T11:45:14Z</time>
      </trkpt>
      <trkpt lat="47.63617" lon="-2.35329">
        <ele>55</ele>
        <time>2014-03-21T11:45:45Z</time>
      </trkpt>
      <trkpt lat="47.63619" lon="-2.35329">
        <ele>54</ele>
        <time>2014-03-21T11:46:15Z</time>
      </trkpt>
      <trkpt lat="47.63618" lon="-2.35329">
        <ele>54</ele>
        <time>2014-03-21T11:46:46Z</time>
      </trkpt>
      <trkpt lat="47.6362" lon="-2.35345">
        <ele>54</ele>
        <time>2014-03-21T11:47:15Z</time>
      </trkpt>
      <trkpt lat="47.63598" lon="-2.3537">
        <ele>54</ele>
        <time>2014-03-21T11:47:46Z</time>
      </trkpt>
      <trkpt lat="47.63579" lon="-2.35388">
        <ele>54</ele>
        <time>2014-03-21T11:48:16Z</time>
      </trkpt>
      <trkpt lat="47.63563" lon="-2.35411">
        <ele>54</ele>
        <time>2014-03-21T11:48:46Z</time>
      </trkpt>
      <trkpt lat="47.63549" lon="-2.35433">
        <ele>54</ele>
        <time>2014-03-21T11:49:16Z</time>
      </trkpt>
      <trkpt lat="47.63548" lon="-2.35469">
        <ele>51</ele>
        <time>2014-03-21T11:49:46Z</time>
      </trkpt>
      <trkpt lat="47.63561" lon="-2.35505">
        <ele>51</ele>
        <time>2014-03-21T11:50:16Z</time>
      </trkpt>
      <trkpt lat="47.63567" lon="-2.35554">
        <ele>51</ele>
        <time>2014-03-21T11:50:47Z</time>
      </trkpt>
      <trkpt lat="47.63563" lon="-2.356">
        <ele>51</ele>
        <time>2014-03-21T11:51:17Z</time>
      </trkpt>
      <trkpt lat="47.63548" lon="-2.35646">
        <ele>51</ele>
        <time>2014-03-21T11:51:47Z</time>
      </trkpt>
      <trkpt lat="47.63538" lon="-2.35692">
        <ele>47</ele>
        <time>2014-03-21T11:52:17Z</time>
      </trkpt>
      <trkpt lat="47.63537" lon="-2.35734">
        <ele>47</ele>
        <time>2014-03-21T11:52:48Z</time>
      </trkpt>
      <trkpt lat="47.63538" lon="-2.35772">
        <ele>41</ele>
        <time>2014-03-21T11:53:18Z</time>
      </trkpt>
      <trkpt lat="47.63541" lon="-2.35813">
        <ele>36</ele>
        <time>2014-03-21T11:53:48Z</time>
      </trkpt>
      <trkpt lat="47.63539" lon="-2.3586">
        <ele>32</ele>
        <time>2014-03-21T11:54:18Z</time>
      </trkpt>
      <trkpt lat="47.6355" lon="-2.35891">
        <ele>28</ele>
        <time>2014-03-21T11:54:48Z</time>
      </trkpt>
      <trkpt lat="47.63568" lon="-2.35891">
        <ele>28</ele>
        <time>2014-03-21T11:55:19Z</time>
      </trkpt>
      <trkpt lat="47.63596" lon="-2.35901">
        <ele>28</ele>
        <time>2014-03-21T11:55:48Z</time>
      </trkpt>
      <trkpt lat="47.63608" lon="-2.35931">
        <ele>28</ele>
        <time>2014-03-21T11:56:19Z</time>
      </trkpt>
      <trkpt lat="47.63597" lon="-2.35956">
        <ele>35</ele>
        <time>2014-03-21T11:56:49Z</time>
      </trkpt>
      <trkpt lat="47.6357" lon="-2.35979">
        <ele>35</ele>
        <time>2014-03-21T11:57:19Z</time>
      </trkpt>
      <trkpt lat="47.63537" lon="-2.35996">
        <ele>35</ele>
        <time>2014-03-21T11:57:50Z</time>
      </trkpt>
      <trkpt lat="47.63503" lon="-2.36018">
        <ele>35</ele>
        <time>2014-03-21T11:58:19Z</time>
      </trkpt>
      <trkpt lat="47.63474" lon="-2.36047">
        <ele>35</ele>
        <time>2014-03-21T11:58:50Z</time>
      </trkpt>
      <trkpt lat="47.63446" lon="-2.36078">
        <ele>35</ele>
        <time>2014-03-21T11:59:20Z</time>
      </trkpt>
      <trkpt lat="47.63419" lon="-2.36112">
        <ele>35</ele>
        <time>2014-03-21T11:59:51Z</time>
      </trkpt>
      <trkpt lat="47.63398" lon="-2.36148">
        <ele>35</ele>
        <time>2014-03-21T12:00:21Z</time>
      </trkpt>
      <trkpt lat="47.63378" lon="-2.36192">
        <ele>35</ele>
        <time>2014-03-21T12:00:51Z</time>
      </trkpt>
      <trkpt lat="47.63359" lon="-2.36233">
        <ele>37</ele>
        <time>2014-03-21T12:01:21Z</time>
      </trkpt>
      <trkpt lat="47.6334" lon="-2.36283">
        <ele>37</ele>
        <time>2014-03-21T12:01:51Z</time>
      </trkpt>
      <trkpt lat="47.63327" lon="-2.36332">
        <ele>37</ele>
        <time>2014-03-21T12:02:22Z</time>
      </trkpt>
      <trkpt lat="47.63319" lon="-2.36379">
        <ele>37</ele>
        <time>2014-03-21T12:02:52Z</time>
      </trkpt>
      <trkpt lat="47.63309" lon="-2.36431">
        <ele>33</ele>
        <time>2014-03-21T12:03:22Z</time>
      </trkpt>
      <trkpt lat="47.63299" lon="-2.36482">
        <ele>33</ele>
        <time>2014-03-21T12:03:52Z</time>
      </trkpt>
      <trkpt lat="47.63291" lon="-2.36531">
        <ele>28</ele>
        <time>2014-03-21T12:04:22Z</time>
      </trkpt>
      <trkpt lat="47.6328" lon="-2.36582">
        <ele>28</ele>
        <time>2014-03-21T12:04:53Z</time>
      </trkpt>
      <trkpt lat="47.63269" lon="-2.36626">
        <ele>28</ele>
        <time>2014-03-21T12:05:22Z</time>
      </trkpt>
      <trkpt lat="47.63251" lon="-2.36669">
        <ele>28</ele>
        <time>2014-03-21T12:05:53Z</time>
      </trkpt>
      <trkpt lat="47.63229" lon="-2.36707">
        <ele>28</ele>
        <time>2014-03-21T12:06:23Z</time>
      </trkpt>
      <trkpt lat="47.63205" lon="-2.3674">
        <ele>22</ele>
        <time>2014-03-21T12:06:54Z</time>
      </trkpt>
      <trkpt lat="47.63184" lon="-2.36771">
        <ele>22</ele>
        <time>2014-03-21T12:07:23Z</time>
      </trkpt>
      <trkpt lat="47.63164" lon="-2.36814">
        <ele>17</ele>
        <time>2014-03-21T12:07:54Z</time>
      </trkpt>
      <trkpt lat="47.63151" lon="-2.36862">
        <ele>17</ele>
        <time>2014-03-21T12:08:24Z</time>
      </trkpt>
      <trkpt lat="47.63143" lon="-2.36905">
        <ele>17</ele>
        <time>2014-03-21T12:08:54Z</time>
      </trkpt>
      <trkpt lat="47.63133" lon="-2.36951">
        <ele>17</ele>
        <time>2014-03-21T12:09:24Z</time>
      </trkpt>
      <trkpt lat="47.63099" lon="-2.36954">
        <ele>17</ele>
        <time>2014-03-21T12:09:54Z</time>
      </trkpt>
      <trkpt lat="47.63094" lon="-2.36935">
        <ele>13</ele>
        <time>2014-03-21T12:10:25Z</time>
      </trkpt>
      <trkpt lat="47.63108" lon="-2.36901">
        <ele>13</ele>
        <time>2014-03-21T12:10:55Z</time>
      </trkpt>
      <trkpt lat="47.63108" lon="-2.36867">
        <ele>13</ele>
        <time>2014-03-21T12:11:26Z</time>
      </trkpt>
      <trkpt lat="47.63105" lon="-2.36824">
        <ele>13</ele>
        <time>2014-03-21T12:11:55Z</time>
      </trkpt>
      <trkpt lat="47.63109" lon="-2.36784">
        <ele>13</ele>
        <time>2014-03-21T12:12:25Z</time>
      </trkpt>
      <trkpt lat="47.63103" lon="-2.36738">
        <ele>13</ele>
        <time>2014-03-21T12:12:56Z</time>
      </trkpt>
      <trkpt lat="47.63096" lon="-2.36702">
        <ele>13</ele>
        <time>2014-03-21T12:13:26Z</time>
      </trkpt>
      <trkpt lat="47.63088" lon="-2.36659">
        <ele>12</ele>
        <time>2014-03-21T12:13:57Z</time>
      </trkpt>
      <trkpt lat="47.63081" lon="-2.36619">
        <ele>12</ele>
        <time>2014-03-21T12:14:26Z</time>
      </trkpt>
      <trkpt lat="47.63065" lon="-2.36598">
        <ele>12</ele>
        <time>2014-03-21T12:14:57Z</time>
      </trkpt>
      <trkpt lat="47.63066" lon="-2.36574">
        <ele>12</ele>
        <time>2014-03-21T12:15:27Z</time>
      </trkpt>
      <trkpt lat="47.63057" lon="-2.36543">
        <ele>12</ele>
        <time>2014-03-21T12:15:57Z</time>
      </trkpt>
      <trkpt lat="47.63048" lon="-2.36513">
        <ele>12</ele>
        <time>2014-03-21T12:16:27Z</time>
      </trkpt>
      <trkpt lat="47.63036" lon="-2.36485">
        <ele>14</ele>
        <time>2014-03-21T12:16:58Z</time>
      </trkpt>
      <trkpt lat="47.63024" lon="-2.3645">
        <ele>14</ele>
        <time>2014-03-21T12:17:28Z</time>
      </trkpt>
      <trkpt lat="47.6301" lon="-2.36424">
        <ele>14</ele>
        <time>2014-03-21T12:17:58Z</time>
      </trkpt>
      <trkpt lat="47.62997" lon="-2.36415">
        <ele>14</ele>
        <time>2014-03-21T12:18:29Z</time>
      </trkpt>
      <trkpt lat="47.62982" lon="-2.36415">
        <ele>20</ele>
        <time>2014-03-21T12:18:58Z</time>
      </trkpt>
      <trkpt lat="47.62961" lon="-2.36414">
        <ele>24</ele>
        <time>2014-03-21T12:19:29Z</time>
      </trkpt>
      <trkpt lat="47.6294" lon="-2.36415">
        <ele>28</ele>
        <time>2014-03-21T12:19:59Z</time>
      </trkpt>
      <trkpt lat="47.62935" lon="-2.3642">
        <ele>28</ele>
        <time>2014-03-21T12:20:30Z</time>
      </trkpt>
      <trkpt lat="47.62911" lon="-2.36424">
        <ele>34</ele>
        <time>2014-03-21T12:21:00Z</time>
      </trkpt>
      <trkpt lat="47.62883" lon="-2.36428">
        <ele>34</ele>
        <time>2014-03-21T12:21:29Z</time>
      </trkpt>
      <trkpt lat="47.62853" lon="-2.36427">
        <ele>34</ele>
        <time>2014-03-21T12:22:00Z</time>
      </trkpt>
      <trkpt lat="47.62828" lon="-2.36428">
        <ele>38</ele>
        <time>2014-03-21T12:22:30Z</time>
      </trkpt>
      <trkpt lat="47.628" lon="-2.3643">
        <ele>38</ele>
        <time>2014-03-21T12:23:00Z</time>
      </trkpt>
      <trkpt lat="47.62769" lon="-2.36435">
        <ele>38</ele>
        <time>2014-03-21T12:23:31Z</time>
      </trkpt>
      <trkpt lat="47.62737" lon="-2.36439">
        <ele>38</ele>
        <time>2014-03-21T12:24:00Z</time>
      </trkpt>
      <trkpt lat="47.62711" lon="-2.36449">
        <ele>38</ele>
        <time>2014-03-21T12:24:31Z</time>
      </trkpt>
      <trkpt lat="47.62684" lon="-2.36451">
        <ele>42</ele>
        <time>2014-03-21T12:25:01Z</time>
      </trkpt>
      <trkpt lat="47.62657" lon="-2.3646">
        <ele>42</ele>
        <time>2014-03-21T12:25:31Z</time>
      </trkpt>
      <trkpt lat="47.62633" lon="-2.36473">
        <ele>47</ele>
        <time>2014-03-21T12:26:01Z</time>
      </trkpt>
      <trkpt lat="47.62605" lon="-2.36484">
        <ele>47</ele>
        <time>2014-03-21T12:26:32Z</time>
      </trkpt>
      <trkpt lat="47.62577" lon="-2.36482">
        <ele>47</ele>
        <time>2014-03-21T12:27:02Z</time>
      </trkpt>
      <trkpt lat="47.62545" lon="-2.36487">
        <ele>52</ele>
        <time>2014-03-21T12:27:32Z</time>
      </trkpt>
      <trkpt lat="47.62518" lon="-2.36498">
        <ele>52</ele>
        <time>2014-03-21T12:28:02Z</time>
      </trkpt>
      <trkpt lat="47.62484" lon="-2.36508">
        <ele>52</ele>
        <time>2014-03-21T12:28:32Z</time>
      </trkpt>
      <trkpt lat="47.62453" lon="-2.36522">
        <ele>52</ele>
        <time>2014-03-21T12:29:03Z</time>
      </trkpt>
      <trkpt lat="47.62428" lon="-2.36529">
        <ele>52</ele>
        <time>2014-03-21T12:29:33Z</time>
      </trkpt>
      <trkpt lat="47.624" lon="-2.36536">
        <ele>55</ele>
        <time>2014-03-21T12:30:03Z</time>
      </trkpt>
      <trkpt lat="47.62362" lon="-2.36547">
        <ele>59</ele>
        <time>2014-03-21T12:30:33Z</time>
      </trkpt>
      <trkpt lat="47.62331" lon="-2.36561">
        <ele>59</ele>
        <time>2014-03-21T12:31:03Z</time>
      </trkpt>
      <trkpt lat="47.62299" lon="-2.3657">
        <ele>59</ele>
        <time>2014-03-21T12:31:34Z</time>
      </trkpt>
      <trkpt lat="47.62281" lon="-2.36584">
        <ele>59</ele>
        <time>2014-03-21T12:32:04Z</time>
      </trkpt>
      <trkpt lat="47.62277" lon="-2.36625">
        <ele>59</ele>
        <time>2014-03-21T12:32:35Z</time>
      </trkpt>
      <trkpt lat="47.62269" lon="-2.36666">
        <ele>59</ele>
        <time>2014-03-21T12:33:04Z</time>
      </trkpt>
      <trkpt lat="47.62266" lon="-2.36714">
        <ele>61</ele>
        <time>2014-03-21T12:33:34Z</time>
      </trkpt>
      <trkpt lat="47.62263" lon="-2.36763">
        <ele>61</ele>
        <time>2014-03-21T12:34:05Z</time>
      </trkpt>
      <trkpt lat="47.62258" lon="-2.36801">
        <ele>67</ele>
        <time>2014-03-21T12:34:35Z</time>
      </trkpt>
      <trkpt lat="47.62251" lon="-2.36842">
        <ele>67</ele>
        <time>2014-03-21T12:35:05Z</time>
      </trkpt>
      <trkpt lat="47.62247" lon="-2.36894">
        <ele>67</ele>
        <time>2014-03-21T12:35:35Z</time>
      </trkpt>
      <trkpt lat="47.62244" lon="-2.36946">
        <ele>67</ele>
        <time>2014-03-21T12:36:06Z</time>
      </trkpt>
      <trkpt lat="47.62244" lon="-2.36994">
        <ele>67</ele>
        <time>2014-03-21T12:36:36Z</time>
      </trkpt>
      <trkpt lat="47.62254" lon="-2.37027">
        <ele>67</ele>
        <time>2014-03-21T12:37:07Z</time>
      </trkpt>
      <trkpt lat="47.62244" lon="-2.37058">
        <ele>66</ele>
        <time>2014-03-21T12:37:37Z</time>
      </trkpt>
      <trkpt lat="47.62249" lon="-2.37098">
        <ele>66</ele>
        <time>2014-03-21T12:38:07Z</time>
      </trkpt>
      <trkpt lat="47.62257" lon="-2.37143">
        <ele>61</ele>
        <time>2014-03-21T12:38:37Z</time>
      </trkpt>
      <trkpt lat="47.6226" lon="-2.37198">
        <ele>61</ele>
        <time>2014-03-21T12:39:08Z</time>
      </trkpt>
      <trkpt lat="47.62255" lon="-2.3724">
        <ele>53</ele>
        <time>2014-03-21T12:39:37Z</time>
      </trkpt>
      <trkpt lat="47.62255" lon="-2.37272">
        <ele>53</ele>
        <time>2014-03-21T12:40:08Z</time>
      </trkpt>
      <trkpt lat="47.62254" lon="-2.37278">
        <ele>53</ele>
        <time>2014-03-21T12:40:38Z</time>
      </trkpt>
      <trkpt lat="47.62256" lon="-2.37281">
        <ele>53</ele>
        <time>2014-03-21T12:41:08Z</time>
      </trkpt>
      <trkpt lat="47.62255" lon="-2.37281">
        <ele>53</ele>
        <time>2014-03-21T12:41:38Z</time>
      </trkpt>
      <trkpt lat="47.62237" lon="-2.37274">
        <ele>53</ele>
        <time>2014-03-21T12:42:08Z</time>
      </trkpt>
      <trkpt lat="47.62205" lon="-2.3727">
        <ele>53</ele>
        <time>2014-03-21T12:42:38Z</time>
      </trkpt>
      <trkpt lat="47.62174" lon="-2.37275">
        <ele>53</ele>
        <time>2014-03-21T12:43:09Z</time>
      </trkpt>
      <trkpt lat="47.6214" lon="-2.37285">
        <ele>58</ele>
        <time>2014-03-21T12:43:39Z</time>
      </trkpt>
      <trkpt lat="47.62105" lon="-2.3729">
        <ele>58</ele>
        <time>2014-03-21T12:44:09Z</time>
      </trkpt>
      <trkpt lat="47.62076" lon="-2.37315">
        <ele>58</ele>
        <time>2014-03-21T12:44:39Z</time>
      </trkpt>
      <trkpt lat="47.62059" lon="-2.37349">
        <ele>62</ele>
        <time>2014-03-21T12:45:10Z</time>
      </trkpt>
      <trkpt lat="47.62054" lon="-2.37372">
        <ele>62</ele>
        <time>2014-03-21T12:45:40Z</time>
      </trkpt>
      <trkpt lat="47.62066" lon="-2.37425">
        <ele>66</ele>
        <time>2014-03-21T12:46:10Z</time>
      </trkpt>
      <trkpt lat="47.6208" lon="-2.37468">
        <ele>66</ele>
        <time>2014-03-21T12:46:41Z</time>
      </trkpt>
      <trkpt lat="47.62076" lon="-2.37514">
        <ele>66</ele>
        <time>2014-03-21T12:47:11Z</time>
      </trkpt>
      <trkpt lat="47.62049" lon="-2.37532">
        <ele>66</ele>
        <time>2014-03-21T12:47:41Z</time>
      </trkpt>
      <trkpt lat="47.62024" lon="-2.3756">
        <ele>72</ele>
        <time>2014-03-21T12:48:11Z</time>
      </trkpt>
      <trkpt lat="47.62024" lon="-2.37613">
        <ele>72</ele>
        <time>2014-03-21T12:48:41Z</time>
      </trkpt>
      <trkpt lat="47.62035" lon="-2.37662">
        <ele>68</ele>
        <time>2014-03-21T12:49:12Z</time>
      </trkpt>
      <trkpt lat="47.62044" lon="-2.37712">
        <ele>72</ele>
        <time>2014-03-21T12:49:42Z</time>
      </trkpt>
      <trkpt lat="47.62052" lon="-2.37767">
        <ele>72</ele>
        <time>2014-03-21T12:50:12Z</time>
      </trkpt>
      <trkpt lat="47.62058" lon="-2.3782">
        <ele>72</ele>
        <time>2014-03-21T12:50:42Z</time>
      </trkpt>
      <trkpt lat="47.62066" lon="-2.37874">
        <ele>72</ele>
        <time>2014-03-21T12:51:13Z</time>
      </trkpt>
      <trkpt lat="47.6208" lon="-2.37926">
        <ele>72</ele>
        <time>2014-03-21T12:51:42Z</time>
      </trkpt>
      <trkpt lat="47.62094" lon="-2.37974">
        <ele>72</ele>
        <time>2014-03-21T12:52:13Z</time>
      </trkpt>
      <trkpt lat="47.62108" lon="-2.38027">
        <ele>71</ele>
        <time>2014-03-21T12:52:43Z</time>
      </trkpt>
      <trkpt lat="47.62123" lon="-2.38074">
        <ele>71</ele>
        <time>2014-03-21T12:53:14Z</time>
      </trkpt>
      <trkpt lat="47.62135" lon="-2.3812">
        <ele>76</ele>
        <time>2014-03-21T12:53:43Z</time>
      </trkpt>
      <trkpt lat="47.62151" lon="-2.38172">
        <ele>76</ele>
        <time>2014-03-21T12:54:14Z</time>
      </trkpt>
      <trkpt lat="47.62165" lon="-2.38214">
        <ele>76</ele>
        <time>2014-03-21T12:54:44Z</time>
      </trkpt>
      <trkpt lat="47.62187" lon="-2.38228">
        <ele>76</ele>
        <time>2014-03-21T12:55:15Z</time>
      </trkpt>
      <trkpt lat="47.62206" lon="-2.38243">
        <ele>76</ele>
        <time>2014-03-21T12:55:45Z</time>
      </trkpt>
      <trkpt lat="47.62236" lon="-2.38236">
        <ele>72</ele>
        <time>2014-03-21T12:56:15Z</time>
      </trkpt>
      <trkpt lat="47.62252" lon="-2.38263">
        <ele>72</ele>
        <time>2014-03-21T12:56:45Z</time>
      </trkpt>
      <trkpt lat="47.6226" lon="-2.38293">
        <ele>72</ele>
        <time>2014-03-21T12:57:16Z</time>
      </trkpt>
      <trkpt lat="47.62288" lon="-2.38286">
        <ele>72</ele>
        <time>2014-03-21T12:57:46Z</time>
      </trkpt>
      <trkpt lat="47.62312" lon="-2.38279">
        <ele>64</ele>
        <time>2014-03-21T12:58:15Z</time>
      </trkpt>
      <trkpt lat="47.62336" lon="-2.38282">
        <ele>60</ele>
        <time>2014-03-21T12:58:46Z</time>
      </trkpt>
      <trkpt lat="47.62349" lon="-2.38303">
        <ele>60</ele>
        <time>2014-03-21T12:59:16Z</time>
      </trkpt>
      <trkpt lat="47.62357" lon="-2.38339">
        <ele>60</ele>
        <time>2014-03-21T12:59:46Z</time>
      </trkpt>
      <trkpt lat="47.62368" lon="-2.38382">
        <ele>60</ele>
        <time>2014-03-21T13:00:16Z</time>
      </trkpt>
      <trkpt lat="47.62377" lon="-2.3843">
        <ele>60</ele>
        <time>2014-03-21T13:00:46Z</time>
      </trkpt>
      <trkpt lat="47.62384" lon="-2.38475">
        <ele>58</ele>
        <time>2014-03-21T13:01:17Z</time>
      </trkpt>
      <trkpt lat="47.62404" lon="-2.38505">
        <ele>58</ele>
        <time>2014-03-21T13:01:47Z</time>
      </trkpt>
      <trkpt lat="47.62422" lon="-2.38524">
        <ele>62</ele>
        <time>2014-03-21T13:02:18Z</time>
      </trkpt>
      <trkpt lat="47.62421" lon="-2.3855">
        <ele>67</ele>
        <time>2014-03-21T13:02:48Z</time>
      </trkpt>
      <trkpt lat="47.62418" lon="-2.38585">
        <ele>67</ele>
        <time>2014-03-21T13:03:18Z</time>
      </trkpt>
      <trkpt lat="47.62421" lon="-2.38619">
        <ele>73</ele>
        <time>2014-03-21T13:03:48Z</time>
      </trkpt>
      <trkpt lat="47.6243" lon="-2.38656">
        <ele>73</ele>
        <time>2014-03-21T13:04:18Z</time>
      </trkpt>
      <trkpt lat="47.62439" lon="-2.38693">
        <ele>78</ele>
        <time>2014-03-21T13:04:49Z</time>
      </trkpt>
      <trkpt lat="47.62444" lon="-2.38716">
        <ele>78</ele>
        <time>2014-03-21T13:05:18Z</time>
      </trkpt>
      <trkpt lat="47.62454" lon="-2.38755">
        <ele>78</ele>
        <time>2014-03-21T13:05:49Z</time>
      </trkpt>
      <trkpt lat="47.62463" lon="-2.38803">
        <ele>78</ele>
        <time>2014-03-21T13:06:19Z</time>
      </trkpt>
      <trkpt lat="47.62467" lon="-2.38849">
        <ele>80</ele>
        <time>2014-03-21T13:06:50Z</time>
      </trkpt>
      <trkpt lat="47.62468" lon="-2.38879">
        <ele>80</ele>
        <time>2014-03-21T13:07:20Z</time>
      </trkpt>
      <trkpt lat="47.62481" lon="-2.38925">
        <ele>80</ele>
        <time>2014-03-21T13:07:49Z</time>
      </trkpt>
      <trkpt lat="47.62489" lon="-2.38958">
        <ele>85</ele>
        <time>2014-03-21T13:08:20Z</time>
      </trkpt>
      <trkpt lat="47.62494" lon="-2.38965">
        <ele>85</ele>
        <time>2014-03-21T13:08:50Z</time>
      </trkpt>
      <trkpt lat="47.62494" lon="-2.38967">
        <ele>85</ele>
        <time>2014-03-21T13:09:20Z</time>
      </trkpt>
      <trkpt lat="47.62503" lon="-2.38965">
        <ele>85</ele>
        <time>2014-03-21T13:09:51Z</time>
      </trkpt>
      <trkpt lat="47.62524" lon="-2.38955">
        <ele>93</ele>
        <time>2014-03-21T13:10:20Z</time>
      </trkpt>
      <trkpt lat="47.62548" lon="-2.38956">
        <ele>93</ele>
        <time>2014-03-21T13:10:51Z</time>
      </trkpt>
      <trkpt lat="47.62572" lon="-2.38959">
        <ele>93</ele>
        <time>2014-03-21T13:11:22Z</time>
      </trkpt>
      <trkpt lat="47.6259" lon="-2.38975">
        <ele>98</ele>
        <time>2014-03-21T13:11:52Z</time>
      </trkpt>
      <trkpt lat="47.62583" lon="-2.38984">
        <ele>98</ele>
        <time>2014-03-21T13:12:21Z</time>
      </trkpt>
      <trkpt lat="47.6258" lon="-2.3899">
        <ele>98</ele>
        <time>2014-03-21T13:12:52Z</time>
      </trkpt>
      <trkpt lat="47.62582" lon="-2.38996">
        <ele>98</ele>
        <time>2014-03-21T13:13:22Z</time>
      </trkpt>
      <trkpt lat="47.62579" lon="-2.39012">
        <ele>98</ele>
        <time>2014-03-21T13:13:52Z</time>
      </trkpt>
      <trkpt lat="47.62571" lon="-2.39042">
        <ele>94</ele>
        <time>2014-03-21T13:14:23Z</time>
      </trkpt>
      <trkpt lat="47.62568" lon="-2.39066">
        <ele>94</ele>
        <time>2014-03-21T13:14:53Z</time>
      </trkpt>
      <trkpt lat="47.62588" lon="-2.39101">
        <ele>94</ele>
        <time>2014-03-21T13:15:23Z</time>
      </trkpt>
      <trkpt lat="47.62605" lon="-2.39136">
        <ele>94</ele>
        <time>2014-03-21T13:15:53Z</time>
      </trkpt>
      <trkpt lat="47.62627" lon="-2.39178">
        <ele>94</ele>
        <time>2014-03-21T13:16:23Z</time>
      </trkpt>
      <trkpt lat="47.6265" lon="-2.39182">
        <ele>95</ele>
        <time>2014-03-21T13:16:54Z</time>
      </trkpt>
      <trkpt lat="47.62676" lon="-2.39177">
        <ele>95</ele>
        <time>2014-03-21T13:17:24Z</time>
      </trkpt>
      <trkpt lat="47.62704" lon="-2.39166">
        <ele>95</ele>
        <time>2014-03-21T13:17:54Z</time>
      </trkpt>
      <trkpt lat="47.62733" lon="-2.3915">
        <ele>91</ele>
        <time>2014-03-21T13:18:24Z</time>
      </trkpt>
      <trkpt lat="47.62757" lon="-2.39149">
        <ele>81</ele>
        <time>2014-03-21T13:18:54Z</time>
      </trkpt>
      <trkpt lat="47.62788" lon="-2.39132">
        <ele>76</ele>
        <time>2014-03-21T13:19:24Z</time>
      </trkpt>
      <trkpt lat="47.62814" lon="-2.39122">
        <ele>76</ele>
        <time>2014-03-21T13:19:55Z</time>
      </trkpt>
      <trkpt lat="47.62835" lon="-2.39143">
        <ele>76</ele>
        <time>2014-03-21T13:20:25Z</time>
      </trkpt>
      <trkpt lat="47.62866" lon="-2.3912">
        <ele>71</ele>
        <time>2014-03-21T13:20:55Z</time>
      </trkpt>
      <trkpt lat="47.6289" lon="-2.39101">
        <ele>71</ele>
        <time>2014-03-21T13:21:25Z</time>
      </trkpt>
      <trkpt lat="47.62918" lon="-2.39089">
        <ele>71</ele>
        <time>2014-03-21T13:21:56Z</time>
      </trkpt>
      <trkpt lat="47.62953" lon="-2.39069">
        <ele>71</ele>
        <time>2014-03-21T13:22:26Z</time>
      </trkpt>
      <trkpt lat="47.6296" lon="-2.39036">
        <ele>71</ele>
        <time>2014-03-21T13:22:56Z</time>
      </trkpt>
      <trkpt lat="47.62946" lon="-2.38985">
        <ele>69</ele>
        <time>2014-03-21T13:23:26Z</time>
      </trkpt>
      <trkpt lat="47.62936" lon="-2.38943">
        <ele>69</ele>
        <time>2014-03-21T13:23:57Z</time>
      </trkpt>
      <trkpt lat="47.62933" lon="-2.3891">
        <ele>69</ele>
        <time>2014-03-21T13:24:27Z</time>
      </trkpt>
      <trkpt lat="47.62929" lon="-2.38895">
        <ele>69</ele>
        <time>2014-03-21T13:24:57Z</time>
      </trkpt>
      <trkpt lat="47.62923" lon="-2.38883">
        <ele>69</ele>
        <time>2014-03-21T13:25:27Z</time>
      </trkpt>
      <trkpt lat="47.62922" lon="-2.38858">
        <ele>67</ele>
        <time>2014-03-21T13:25:57Z</time>
      </trkpt>
      <trkpt lat="47.62925" lon="-2.38824">
        <ele>67</ele>
        <time>2014-03-21T13:26:28Z</time>
      </trkpt>
      <trkpt lat="47.62932" lon="-2.38776">
        <ele>71</ele>
        <time>2014-03-21T13:26:59Z</time>
      </trkpt>
      <trkpt lat="47.62933" lon="-2.38726">
        <ele>71</ele>
        <time>2014-03-21T13:27:28Z</time>
      </trkpt>
      <trkpt lat="47.62936" lon="-2.38673">
        <ele>71</ele>
        <time>2014-03-21T13:27:58Z</time>
      </trkpt>
      <trkpt lat="47.62937" lon="-2.38618">
        <ele>71</ele>
        <time>2014-03-21T13:28:28Z</time>
      </trkpt>
      <trkpt lat="47.62943" lon="-2.38586">
        <ele>71</ele>
        <time>2014-03-21T13:28:59Z</time>
      </trkpt>
      <trkpt lat="47.62962" lon="-2.38566">
        <ele>75</ele>
        <time>2014-03-21T13:29:29Z</time>
      </trkpt>
      <trkpt lat="47.62986" lon="-2.38562">
        <ele>75</ele>
        <time>2014-03-21T13:29:59Z</time>
      </trkpt>
      <trkpt lat="47.62992" lon="-2.38558">
        <ele>75</ele>
        <time>2014-03-21T13:30:29Z</time>
      </trkpt>
      <trkpt lat="47.63002" lon="-2.38557">
        <ele>75</ele>
        <time>2014-03-21T13:30:59Z</time>
      </trkpt>
      <trkpt lat="47.63009" lon="-2.38541">
        <ele>75</ele>
        <time>2014-03-21T13:31:30Z</time>
      </trkpt>
      <trkpt lat="47.63024" lon="-2.38516">
        <ele>75</ele>
        <time>2014-03-21T13:32:00Z</time>
      </trkpt>
      <trkpt lat="47.63044" lon="-2.38486">
        <ele>75</ele>
        <time>2014-03-21T13:32:30Z</time>
      </trkpt>
      <trkpt lat="47.63064" lon="-2.3845">
        <ele>75</ele>
        <time>2014-03-21T13:33:00Z</time>
      </trkpt>
      <trkpt lat="47.63068" lon="-2.38403">
        <ele>71</ele>
        <time>2014-03-21T13:33:30Z</time>
      </trkpt>
      <trkpt lat="47.63056" lon="-2.38366">
        <ele>71</ele>
        <time>2014-03-21T13:34:01Z</time>
      </trkpt>
      <trkpt lat="47.63034" lon="-2.38331">
        <ele>71</ele>
        <time>2014-03-21T13:34:31Z</time>
      </trkpt>
      <trkpt lat="47.63018" lon="-2.38277">
        <ele>71</ele>
        <time>2014-03-21T13:35:01Z</time>
      </trkpt>
      <trkpt lat="47.63034" lon="-2.38258">
        <ele>71</ele>
        <time>2014-03-21T13:35:32Z</time>
      </trkpt>
      <trkpt lat="47.63062" lon="-2.38255">
        <ele>66</ele>
        <time>2014-03-21T13:36:01Z</time>
      </trkpt>
      <trkpt lat="47.63091" lon="-2.38252">
        <ele>61</ele>
        <time>2014-03-21T13:36:32Z</time>
      </trkpt>
      <trkpt lat="47.63117" lon="-2.38241">
        <ele>61</ele>
        <time>2014-03-21T13:37:02Z</time>
      </trkpt>
      <trkpt lat="47.63131" lon="-2.38221">
        <ele>57</ele>
        <time>2014-03-21T13:37:32Z</time>
      </trkpt>
      <trkpt lat="47.63144" lon="-2.38199">
        <ele>52</ele>
        <time>2014-03-21T13:38:02Z</time>
      </trkpt>
      <trkpt lat="47.63157" lon="-2.38211">
        <ele>46</ele>
        <time>2014-03-21T13:38:33Z</time>
      </trkpt>
      <trkpt lat="47.63168" lon="-2.38239">
        <ele>46</ele>
        <time>2014-03-21T13:39:03Z</time>
      </trkpt>
      <trkpt lat="47.63195" lon="-2.38261">
        <ele>40</ele>
        <time>2014-03-21T13:39:33Z</time>
      </trkpt>
      <trkpt lat="47.63216" lon="-2.38292">
        <ele>40</ele>
        <time>2014-03-21T13:40:04Z</time>
      </trkpt>
      <trkpt lat="47.63238" lon="-2.38316">
        <ele>40</ele>
        <time>2014-03-21T13:40:34Z</time>
      </trkpt>
      <trkpt lat="47.6327" lon="-2.38326">
        <ele>35</ele>
        <time>2014-03-21T13:41:04Z</time>
      </trkpt>
      <trkpt lat="47.633" lon="-2.38353">
        <ele>31</ele>
        <time>2014-03-21T13:41:35Z</time>
      </trkpt>
      <trkpt lat="47.63314" lon="-2.38362">
        <ele>31</ele>
        <time>2014-03-21T13:42:04Z</time>
      </trkpt>
      <trkpt lat="47.63336" lon="-2.38379">
        <ele>31</ele>
        <time>2014-03-21T13:42:34Z</time>
      </trkpt>
      <trkpt lat="47.63361" lon="-2.38382">
        <ele>31</ele>
        <time>2014-03-21T13:43:05Z</time>
      </trkpt>
      <trkpt lat="47.63369" lon="-2.3835">
        <ele>35</ele>
        <time>2014-03-21T13:43:35Z</time>
      </trkpt>
      <trkpt lat="47.63383" lon="-2.38323">
        <ele>35</ele>
        <time>2014-03-21T13:44:05Z</time>
      </trkpt>
      <trkpt lat="47.63397" lon="-2.38343">
        <ele>39</ele>
        <time>2014-03-21T13:44:36Z</time>
      </trkpt>
      <trkpt lat="47.63414" lon="-2.3838">
        <ele>39</ele>
        <time>2014-03-21T13:45:06Z</time>
      </trkpt>
      <trkpt lat="47.63431" lon="-2.38411">
        <ele>45</ele>
        <time>2014-03-21T13:45:36Z</time>
      </trkpt>
      <trkpt lat="47.63432" lon="-2.3845">
        <ele>45</ele>
        <time>2014-03-21T13:46:06Z</time>
      </trkpt>
      <trkpt lat="47.63444" lon="-2.38499">
        <ele>45</ele>
        <time>2014-03-21T13:46:36Z</time>
      </trkpt>
      <trkpt lat="47.63442" lon="-2.38543">
        <ele>45</ele>
        <time>2014-03-21T13:47:06Z</time>
      </trkpt>
      <trkpt lat="47.63446" lon="-2.38583">
        <ele>45</ele>
        <time>2014-03-21T13:47:37Z</time>
      </trkpt>
      <trkpt lat="47.63435" lon="-2.38624">
        <ele>40</ele>
        <time>2014-03-21T13:48:07Z</time>
      </trkpt>
      <trkpt lat="47.63422" lon="-2.38676">
        <ele>40</ele>
        <time>2014-03-21T13:48:37Z</time>
      </trkpt>
      <trkpt lat="47.63427" lon="-2.3872">
        <ele>34</ele>
        <time>2014-03-21T13:49:08Z</time>
      </trkpt>
      <trkpt lat="47.63458" lon="-2.38761">
        <ele>34</ele>
        <time>2014-03-21T13:49:38Z</time>
      </trkpt>
      <trkpt lat="47.63477" lon="-2.38792">
        <ele>34</ele>
        <time>2014-03-21T13:50:08Z</time>
      </trkpt>
      <trkpt lat="47.63493" lon="-2.3882">
        <ele>39</ele>
        <time>2014-03-21T13:50:38Z</time>
      </trkpt>
      <trkpt lat="47.63499" lon="-2.38857">
        <ele>39</ele>
        <time>2014-03-21T13:51:09Z</time>
      </trkpt>
      <trkpt lat="47.63507" lon="-2.38903">
        <ele>39</ele>
        <time>2014-03-21T13:51:39Z</time>
      </trkpt>
      <trkpt lat="47.63519" lon="-2.38947">
        <ele>43</ele>
        <time>2014-03-21T13:52:09Z</time>
      </trkpt>
      <trkpt lat="47.63529" lon="-2.39001">
        <ele>43</ele>
        <time>2014-03-21T13:52:40Z</time>
      </trkpt>
      <trkpt lat="47.63538" lon="-2.39052">
        <ele>43</ele>
        <time>2014-03-21T13:53:10Z</time>
      </trkpt>
      <trkpt lat="47.63547" lon="-2.39099">
        <ele>43</ele>
        <time>2014-03-21T13:53:39Z</time>
      </trkpt>
      <trkpt lat="47.63569" lon="-2.39146">
        <ele>43</ele>
        <time>2014-03-21T13:54:10Z</time>
      </trkpt>
      <trkpt lat="47.63599" lon="-2.39174">
        <ele>43</ele>
        <time>2014-03-21T13:54:40Z</time>
      </trkpt>
      <trkpt lat="47.63617" lon="-2.39161">
        <ele>43</ele>
        <time>2014-03-21T13:55:10Z</time>
      </trkpt>
      <trkpt lat="47.63646" lon="-2.39169">
        <ele>43</ele>
        <time>2014-03-21T13:55:40Z</time>
      </trkpt>
      <trkpt lat="47.63666" lon="-2.39198">
        <ele>43</ele>
        <time>2014-03-21T13:56:10Z</time>
      </trkpt>
      <trkpt lat="47.63686" lon="-2.39241">
        <ele>43</ele>
        <time>2014-03-21T13:56:40Z</time>
      </trkpt>
      <trkpt lat="47.63699" lon="-2.39286">
        <ele>45</ele>
        <time>2014-03-21T13:57:11Z</time>
      </trkpt>
      <trkpt lat="47.637" lon="-2.39327">
        <ele>45</ele>
        <time>2014-03-21T13:57:41Z</time>
      </trkpt>
      <trkpt lat="47.63705" lon="-2.39369">
        <ele>45</ele>
        <time>2014-03-21T13:58:11Z</time>
      </trkpt>
      <trkpt lat="47.63725" lon="-2.39412">
        <ele>50</ele>
        <time>2014-03-21T13:58:42Z</time>
      </trkpt>
      <trkpt lat="47.63755" lon="-2.39435">
        <ele>50</ele>
        <time>2014-03-21T13:59:12Z</time>
      </trkpt>
      <trkpt lat="47.63773" lon="-2.39459">
        <ele>50</ele>
        <time>2014-03-21T13:59:42Z</time>
      </trkpt>
      <trkpt lat="47.63794" lon="-2.39478">
        <ele>46</ele>
        <time>2014-03-21T14:00:12Z</time>
      </trkpt>
      <trkpt lat="47.63823" lon="-2.39474">
        <ele>46</ele>
        <time>2014-03-21T14:00:42Z</time>
      </trkpt>
      <trkpt lat="47.63844" lon="-2.3944">
        <ele>50</ele>
        <time>2014-03-21T14:01:13Z</time>
      </trkpt>
      <trkpt lat="47.63856" lon="-2.39402">
        <ele>55</ele>
        <time>2014-03-21T14:01:43Z</time>
      </trkpt>
      <trkpt lat="47.63866" lon="-2.39363">
        <ele>55</ele>
        <time>2014-03-21T14:02:14Z</time>
      </trkpt>
      <trkpt lat="47.6388" lon="-2.39326">
        <ele>60</ele>
        <time>2014-03-21T14:02:44Z</time>
      </trkpt>
      <trkpt lat="47.63893" lon="-2.39288">
        <ele>60</ele>
        <time>2014-03-21T14:03:13Z</time>
      </trkpt>
      <trkpt lat="47.63897" lon="-2.39242">
        <ele>64</ele>
        <time>2014-03-21T14:03:43Z</time>
      </trkpt>
      <trkpt lat="47.639" lon="-2.39198">
        <ele>64</ele>
        <time>2014-03-21T14:04:14Z</time>
      </trkpt>
      <trkpt lat="47.63901" lon="-2.39153">
        <ele>69</ele>
        <time>2014-03-21T14:04:44Z</time>
      </trkpt>
      <trkpt lat="47.63905" lon="-2.39108">
        <ele>73</ele>
        <time>2014-03-21T14:05:14Z</time>
      </trkpt>
      <trkpt lat="47.6391" lon="-2.39059">
        <ele>73</ele>
        <time>2014-03-21T14:05:45Z</time>
      </trkpt>
      <trkpt lat="47.63916" lon="-2.39014">
        <ele>73</ele>
        <time>2014-03-21T14:06:15Z</time>
      </trkpt>
      <trkpt lat="47.63926" lon="-2.38969">
        <ele>73</ele>
        <time>2014-03-21T14:06:45Z</time>
      </trkpt>
      <trkpt lat="47.63939" lon="-2.38928">
        <ele>78</ele>
        <time>2014-03-21T14:07:15Z</time>
      </trkpt>
      <trkpt lat="47.63944" lon="-2.38925">
        <ele>78</ele>
        <time>2014-03-21T14:07:45Z</time>
      </trkpt>
      <trkpt lat="47.63944" lon="-2.38924">
        <ele>78</ele>
        <time>2014-03-21T14:08:16Z</time>
      </trkpt>
      <trkpt lat="47.63945" lon="-2.38923">
        <ele>78</ele>
        <time>2014-03-21T14:08:46Z</time>
      </trkpt>
      <trkpt lat="47.63951" lon="-2.38921">
        <ele>78</ele>
        <time>2014-03-21T14:09:16Z</time>
      </trkpt>
      <trkpt lat="47.63953" lon="-2.38904">
        <ele>78</ele>
        <time>2014-03-21T14:09:46Z</time>
      </trkpt>
      <trkpt lat="47.63961" lon="-2.38856">
        <ele>80</ele>
        <time>2014-03-21T14:10:17Z</time>
      </trkpt>
      <trkpt lat="47.63963" lon="-2.38817">
        <ele>80</ele>
        <time>2014-03-21T14:10:47Z</time>
      </trkpt>
      <trkpt lat="47.6395" lon="-2.38778">
        <ele>76</ele>
        <time>2014-03-21T14:11:18Z</time>
      </trkpt>
      <trkpt lat="47.63935" lon="-2.38737">
        <ele>76</ele>
        <time>2014-03-21T14:11:48Z</time>
      </trkpt>
      <trkpt lat="47.63923" lon="-2.38694">
        <ele>76</ele>
        <time>2014-03-21T14:12:18Z</time>
      </trkpt>
      <trkpt lat="47.6392" lon="-2.38659">
        <ele>70</ele>
        <time>2014-03-21T14:12:48Z</time>
      </trkpt>
      <trkpt lat="47.63923" lon="-2.38624">
        <ele>66</ele>
        <time>2014-03-21T14:13:18Z</time>
      </trkpt>
      <trkpt lat="47.63919" lon="-2.38577">
        <ele>66</ele>
        <time>2014-03-21T14:13:49Z</time>
      </trkpt>
      <trkpt lat="47.63912" lon="-2.38531">
        <ele>66</ele>
        <time>2014-03-21T14:14:19Z</time>
      </trkpt>
      <trkpt lat="47.63908" lon="-2.38474">
        <ele>62</ele>
        <time>2014-03-21T14:14:49Z</time>
      </trkpt>
      <trkpt lat="47.63898" lon="-2.38419">
        <ele>62</ele>
        <time>2014-03-21T14:15:19Z</time>
      </trkpt>
      <trkpt lat="47.63905" lon="-2.38369">
        <ele>62</ele>
        <time>2014-03-21T14:15:49Z</time>
      </trkpt>
      <trkpt lat="47.63902" lon="-2.3833">
        <ele>62</ele>
        <time>2014-03-21T14:16:20Z</time>
      </trkpt>
      <trkpt lat="47.63877" lon="-2.38296">
        <ele>62</ele>
        <time>2014-03-21T14:16:50Z</time>
      </trkpt>
      <trkpt lat="47.63884" lon="-2.38288">
        <ele>66</ele>
        <time>2014-03-21T14:17:21Z</time>
      </trkpt>
      <trkpt lat="47.63905" lon="-2.38303">
        <ele>71</ele>
        <time>2014-03-21T14:17:51Z</time>
      </trkpt>
      <trkpt lat="47.63932" lon="-2.38318">
        <ele>75</ele>
        <time>2014-03-21T14:18:21Z</time>
      </trkpt>
      <trkpt lat="47.63966" lon="-2.38317">
        <ele>75</ele>
        <time>2014-03-21T14:18:51Z</time>
      </trkpt>
      <trkpt lat="47.63993" lon="-2.38315">
        <ele>75</ele>
        <time>2014-03-21T14:19:21Z</time>
      </trkpt>
      <trkpt lat="47.64017" lon="-2.3829">
        <ele>79</ele>
        <time>2014-03-21T14:19:51Z</time>
      </trkpt>
      <trkpt lat="47.64013" lon="-2.3826">
        <ele>84</ele>
        <time>2014-03-21T14:20:21Z</time>
      </trkpt>
      <trkpt lat="47.64008" lon="-2.38221">
        <ele>89</ele>
        <time>2014-03-21T14:20:52Z</time>
      </trkpt>
      <trkpt lat="47.64007" lon="-2.38216">
        <ele>89</ele>
        <time>2014-03-21T14:21:22Z</time>
      </trkpt>
      <trkpt lat="47.64005" lon="-2.38216">
        <ele>89</ele>
        <time>2014-03-21T14:21:52Z</time>
      </trkpt>
      <trkpt lat="47.64008" lon="-2.38218">
        <ele>89</ele>
        <time>2014-03-21T14:22:22Z</time>
      </trkpt>
      <trkpt lat="47.64007" lon="-2.38214">
        <ele>89</ele>
        <time>2014-03-21T14:22:52Z</time>
      </trkpt>
      <trkpt lat="47.64007" lon="-2.38215">
        <ele>90</ele>
        <time>2014-03-21T14:23:22Z</time>
      </trkpt>
      <trkpt lat="47.64001" lon="-2.38193">
        <ele>90</ele>
        <time>2014-03-21T14:23:54Z</time>
      </trkpt>
      <trkpt lat="47.63989" lon="-2.38154">
        <ele>90</ele>
        <time>2014-03-21T14:24:23Z</time>
      </trkpt>
      <trkpt lat="47.63971" lon="-2.38102">
        <ele>90</ele>
        <time>2014-03-21T14:24:54Z</time>
      </trkpt>
      <trkpt lat="47.63959" lon="-2.38055">
        <ele>90</ele>
        <time>2014-03-21T14:25:24Z</time>
      </trkpt>
      <trkpt lat="47.63923" lon="-2.3803">
        <ele>89</ele>
        <time>2014-03-21T14:25:54Z</time>
      </trkpt>
      <trkpt lat="47.63906" lon="-2.37987">
        <ele>89</ele>
        <time>2014-03-21T14:26:24Z</time>
      </trkpt>
      <trkpt lat="47.63889" lon="-2.37939">
        <ele>89</ele>
        <time>2014-03-21T14:26:54Z</time>
      </trkpt>
      <trkpt lat="47.63871" lon="-2.37893">
        <ele>89</ele>
        <time>2014-03-21T14:27:25Z</time>
      </trkpt>
      <trkpt lat="47.63863" lon="-2.37841">
        <ele>89</ele>
        <time>2014-03-21T14:27:55Z</time>
      </trkpt>
      <trkpt lat="47.63861" lon="-2.37786">
        <ele>89</ele>
        <time>2014-03-21T14:28:25Z</time>
      </trkpt>
      <trkpt lat="47.63865" lon="-2.37725">
        <ele>89</ele>
        <time>2014-03-21T14:28:55Z</time>
      </trkpt>
      <trkpt lat="47.6386" lon="-2.37676">
        <ele>89</ele>
        <time>2014-03-21T14:29:25Z</time>
      </trkpt>
      <trkpt lat="47.63859" lon="-2.37654">
        <ele>89</ele>
        <time>2014-03-21T14:29:56Z</time>
      </trkpt>
      <trkpt lat="47.63843" lon="-2.37619">
        <ele>89</ele>
        <time>2014-03-21T14:30:26Z</time>
      </trkpt>
      <trkpt lat="47.63832" lon="-2.37572">
        <ele>88</ele>
        <time>2014-03-21T14:30:56Z</time>
      </trkpt>
      <trkpt lat="47.63818" lon="-2.37526">
        <ele>88</ele>
        <time>2014-03-21T14:31:26Z</time>
      </trkpt>
      <trkpt lat="47.63805" lon="-2.37487">
        <ele>88</ele>
        <time>2014-03-21T14:31:56Z</time>
      </trkpt>
      <trkpt lat="47.63794" lon="-2.37431">
        <ele>88</ele>
        <time>2014-03-21T14:32:27Z</time>
      </trkpt>
      <trkpt lat="47.6378" lon="-2.3739">
        <ele>92</ele>
        <time>2014-03-21T14:32:57Z</time>
      </trkpt>
      <trkpt lat="47.6376" lon="-2.37354">
        <ele>92</ele>
        <time>2014-03-21T14:33:27Z</time>
      </trkpt>
      <trkpt lat="47.63732" lon="-2.37323">
        <ele>92</ele>
        <time>2014-03-21T14:33:58Z</time>
      </trkpt>
      <trkpt lat="47.63699" lon="-2.37299">
        <ele>86</ele>
        <time>2014-03-21T14:34:27Z</time>
      </trkpt>
      <trkpt lat="47.63677" lon="-2.37269">
        <ele>86</ele>
        <time>2014-03-21T14:34:58Z</time>
      </trkpt>
      <trkpt lat="47.63652" lon="-2.37232">
        <ele>82</ele>
        <time>2014-03-21T14:35:28Z</time>
      </trkpt>
      <trkpt lat="47.63636" lon="-2.37193">
        <ele>82</ele>
        <time>2014-03-21T14:35:59Z</time>
      </trkpt>
      <trkpt lat="47.63617" lon="-2.37155">
        <ele>75</ele>
        <time>2014-03-21T14:36:28Z</time>
      </trkpt>
      <trkpt lat="47.63611" lon="-2.37136">
        <ele>75</ele>
        <time>2014-03-21T14:36:59Z</time>
      </trkpt>
      <trkpt lat="47.63603" lon="-2.37115">
        <ele>71</ele>
        <time>2014-03-21T14:37:29Z</time>
      </trkpt>
      <trkpt lat="47.63589" lon="-2.37087">
        <ele>66</ele>
        <time>2014-03-21T14:38:00Z</time>
      </trkpt>
      <trkpt lat="47.63571" lon="-2.37056">
        <ele>66</ele>
        <time>2014-03-21T14:38:30Z</time>
      </trkpt>
      <trkpt lat="47.63546" lon="-2.37021">
        <ele>71</ele>
        <time>2014-03-21T14:38:59Z</time>
      </trkpt>
      <trkpt lat="47.63544" lon="-2.36986">
        <ele>71</ele>
        <time>2014-03-21T14:39:30Z</time>
      </trkpt>
      <trkpt lat="47.63546" lon="-2.36944">
        <ele>75</ele>
        <time>2014-03-21T14:40:01Z</time>
      </trkpt>
      <trkpt lat="47.63548" lon="-2.36901">
        <ele>79</ele>
        <time>2014-03-21T14:40:31Z</time>
      </trkpt>
      <trkpt lat="47.63543" lon="-2.36861">
        <ele>79</ele>
        <time>2014-03-21T14:41:00Z</time>
      </trkpt>
      <trkpt lat="47.63537" lon="-2.36834">
        <ele>79</ele>
        <time>2014-03-21T14:41:30Z</time>
      </trkpt>
      <trkpt lat="47.6353" lon="-2.36799">
        <ele>79</ele>
        <time>2014-03-21T14:42:01Z</time>
      </trkpt>
      <trkpt lat="47.6352" lon="-2.36759">
        <ele>79</ele>
        <time>2014-03-21T14:42:31Z</time>
      </trkpt>
      <trkpt lat="47.63511" lon="-2.36714">
        <ele>84</ele>
        <time>2014-03-21T14:43:02Z</time>
      </trkpt>
      <trkpt lat="47.63506" lon="-2.36681">
        <ele>84</ele>
        <time>2014-03-21T14:43:32Z</time>
      </trkpt>
      <trkpt lat="47.63505" lon="-2.36679">
        <ele>88</ele>
        <time>2014-03-21T14:44:02Z</time>
      </trkpt>
      <trkpt lat="47.63504" lon="-2.36678">
        <ele>88</ele>
        <time>2014-03-21T14:44:32Z</time>
      </trkpt>
      <trkpt lat="47.63489" lon="-2.36664">
        <ele>88</ele>
        <time>2014-03-21T14:45:02Z</time>
      </trkpt>
      <trkpt lat="47.6348" lon="-2.36625">
        <ele>88</ele>
        <time>2014-03-21T14:45:32Z</time>
      </trkpt>
      <trkpt lat="47.63469" lon="-2.36579">
        <ele>88</ele>
        <time>2014-03-21T14:46:02Z</time>
      </trkpt>
      <trkpt lat="47.63466" lon="-2.36533">
        <ele>88</ele>
        <time>2014-03-21T14:46:33Z</time>
      </trkpt>
      <trkpt lat="47.63464" lon="-2.36497">
        <ele>88</ele>
        <time>2014-03-21T14:47:03Z</time>
      </trkpt>
      <trkpt lat="47.63461" lon="-2.3645">
        <ele>88</ele>
        <time>2014-03-21T14:47:33Z</time>
      </trkpt>
      <trkpt lat="47.63467" lon="-2.36403">
        <ele>90</ele>
        <time>2014-03-21T14:48:03Z</time>
      </trkpt>
      <trkpt lat="47.63479" lon="-2.36373">
        <ele>90</ele>
        <time>2014-03-21T14:48:33Z</time>
      </trkpt>
      <trkpt lat="47.63481" lon="-2.36371">
        <ele>90</ele>
        <time>2014-03-21T14:49:04Z</time>
      </trkpt>
      <trkpt lat="47.63482" lon="-2.36366">
        <ele>90</ele>
        <time>2014-03-21T14:49:34Z</time>
      </trkpt>
      <trkpt lat="47.6348" lon="-2.36365">
        <ele>90</ele>
        <time>2014-03-21T14:50:04Z</time>
      </trkpt>
      <trkpt lat="47.63482" lon="-2.36369">
        <ele>90</ele>
        <time>2014-03-21T14:50:34Z</time>
      </trkpt>
      <trkpt lat="47.6348" lon="-2.36372">
        <ele>91</ele>
        <time>2014-03-21T14:51:04Z</time>
      </trkpt>
      <trkpt lat="47.6348" lon="-2.36373">
        <ele>91</ele>
        <time>2014-03-21T14:51:34Z</time>
      </trkpt>
      <trkpt lat="47.6348" lon="-2.36373">
        <ele>91</ele>
        <time>2014-03-21T14:52:06Z</time>
      </trkpt>
      <trkpt lat="47.63482" lon="-2.36375">
        <ele>91</ele>
        <time>2014-03-21T14:52:35Z</time>
      </trkpt>
      <trkpt lat="47.63482" lon="-2.36374">
        <ele>91</ele>
        <time>2014-03-21T14:53:06Z</time>
      </trkpt>
      <trkpt lat="47.63482" lon="-2.36374">
        <ele>91</ele>
        <time>2014-03-21T14:53:36Z</time>
      </trkpt>
      <trkpt lat="47.63482" lon="-2.36374">
        <ele>90</ele>
        <time>2014-03-21T14:54:05Z</time>
      </trkpt>
      <trkpt lat="47.63482" lon="-2.36376">
        <ele>90</ele>
        <time>2014-03-21T14:54:36Z</time>
      </trkpt>
      <trkpt lat="47.63483" lon="-2.36375">
        <ele>90</ele>
        <time>2014-03-21T14:55:06Z</time>
      </trkpt>
      <trkpt lat="47.63484" lon="-2.36376">
        <ele>90</ele>
        <time>2014-03-21T14:55:36Z</time>
      </trkpt>
      <trkpt lat="47.63483" lon="-2.36378">
        <ele>90</ele>
        <time>2014-03-21T14:56:06Z</time>
      </trkpt>
      <trkpt lat="47.63481" lon="-2.36379">
        <ele>92</ele>
        <time>2014-03-21T14:56:37Z</time>
      </trkpt>
      <trkpt lat="47.63483" lon="-2.36376">
        <ele>92</ele>
        <time>2014-03-21T14:57:07Z</time>
      </trkpt>
      <trkpt lat="47.63483" lon="-2.36376">
        <ele>92</ele>
        <time>2014-03-21T14:57:37Z</time>
      </trkpt>
      <trkpt lat="47.63485" lon="-2.36375">
        <ele>92</ele>
        <time>2014-03-21T14:58:07Z</time>
      </trkpt>
      <trkpt lat="47.63485" lon="-2.36374">
        <ele>92</ele>
        <time>2014-03-21T14:58:37Z</time>
      </trkpt>
      <trkpt lat="47.63495" lon="-2.36357">
        <ele>92</ele>
        <time>2014-03-21T14:59:07Z</time>
      </trkpt>
      <trkpt lat="47.63513" lon="-2.36319">
        <ele>87</ele>
        <time>2014-03-21T14:59:38Z</time>
      </trkpt>
      <trkpt lat="47.63533" lon="-2.3628">
        <ele>87</ele>
        <time>2014-03-21T15:00:08Z</time>
      </trkpt>
      <trkpt lat="47.63554" lon="-2.36235">
        <ele>87</ele>
        <time>2014-03-21T15:00:39Z</time>
      </trkpt>
      <trkpt lat="47.63574" lon="-2.36195">
        <ele>86</ele>
        <time>2014-03-21T15:01:09Z</time>
      </trkpt>
      <trkpt lat="47.63596" lon="-2.36152">
        <ele>86</ele>
        <time>2014-03-21T15:01:38Z</time>
      </trkpt>
      <trkpt lat="47.63613" lon="-2.36117">
        <ele>82</ele>
        <time>2014-03-21T15:02:09Z</time>
      </trkpt>
      <trkpt lat="47.63628" lon="-2.36115">
        <ele>82</ele>
        <time>2014-03-21T15:02:39Z</time>
      </trkpt>
      <trkpt lat="47.63654" lon="-2.36105">
        <ele>82</ele>
        <time>2014-03-21T15:03:09Z</time>
      </trkpt>
      <trkpt lat="47.63681" lon="-2.36112">
        <ele>82</ele>
        <time>2014-03-21T15:03:40Z</time>
      </trkpt>
      <trkpt lat="47.63706" lon="-2.36115">
        <ele>87</ele>
        <time>2014-03-21T15:04:10Z</time>
      </trkpt>
      <trkpt lat="47.63724" lon="-2.36105">
        <ele>82</ele>
        <time>2014-03-21T15:04:40Z</time>
      </trkpt>
      <trkpt lat="47.63755" lon="-2.36099">
        <ele>76</ele>
        <time>2014-03-21T15:05:10Z</time>
      </trkpt>
      <trkpt lat="47.63788" lon="-2.3609">
        <ele>76</ele>
        <time>2014-03-21T15:05:40Z</time>
      </trkpt>
      <trkpt lat="47.63826" lon="-2.36066">
        <ele>76</ele>
        <time>2014-03-21T15:06:11Z</time>
      </trkpt>
      <trkpt lat="47.63849" lon="-2.3603">
        <ele>76</ele>
        <time>2014-03-21T15:06:41Z</time>
      </trkpt>
      <trkpt lat="47.63852" lon="-2.3601">
        <ele>76</ele>
        <time>2014-03-21T15:07:11Z</time>
      </trkpt>
      <trkpt lat="47.63856" lon="-2.35999">
        <ele>80</ele>
        <time>2014-03-21T15:07:42Z</time>
      </trkpt>
      <trkpt lat="47.6385" lon="-2.35977">
        <ele>85</ele>
        <time>2014-03-21T15:08:11Z</time>
      </trkpt>
      <trkpt lat="47.63834" lon="-2.35952">
        <ele>89</ele>
        <time>2014-03-21T15:08:42Z</time>
      </trkpt>
      <trkpt lat="47.63799" lon="-2.35933">
        <ele>89</ele>
        <time>2014-03-21T15:09:13Z</time>
      </trkpt>
      <trkpt lat="47.63775" lon="-2.359">
        <ele>89</ele>
        <time>2014-03-21T15:09:42Z</time>
      </trkpt>
      <trkpt lat="47.6376" lon="-2.35853">
        <ele>89</ele>
        <time>2014-03-21T15:10:12Z</time>
      </trkpt>
      <trkpt lat="47.63746" lon="-2.35807">
        <ele>89</ele>
        <time>2014-03-21T15:10:43Z</time>
      </trkpt>
      <trkpt lat="47.63734" lon="-2.35759">
        <ele>80</ele>
        <time>2014-03-21T15:11:13Z</time>
      </trkpt>
      <trkpt lat="47.63718" lon="-2.35722">
        <ele>76</ele>
        <time>2014-03-21T15:11:43Z</time>
      </trkpt>
      <trkpt lat="47.63692" lon="-2.35685">
        <ele>76</ele>
        <time>2014-03-21T15:12:13Z</time>
      </trkpt>
      <trkpt lat="47.63667" lon="-2.35669">
        <ele>70</ele>
        <time>2014-03-21T15:12:44Z</time>
      </trkpt>
      <trkpt lat="47.63632" lon="-2.35661">
        <ele>70</ele>
        <time>2014-03-21T15:13:14Z</time>
      </trkpt>
      <trkpt lat="47.63596" lon="-2.35654">
        <ele>66</ele>
        <time>2014-03-21T15:13:44Z</time>
      </trkpt>
      <trkpt lat="47.6356" lon="-2.35638">
        <ele>62</ele>
        <time>2014-03-21T15:14:14Z</time>
      </trkpt>
      <trkpt lat="47.63567" lon="-2.35595">
        <ele>66</ele>
        <time>2014-03-21T15:14:44Z</time>
      </trkpt>
      <trkpt lat="47.63561" lon="-2.3555">
        <ele>66</ele>
        <time>2014-03-21T15:15:15Z</time>
      </trkpt>
      <trkpt lat="47.63572" lon="-2.35505">
        <ele>70</ele>
        <time>2014-03-21T15:15:45Z</time>
      </trkpt>
      <trkpt lat="47.63601" lon="-2.35486">
        <ele>70</ele>
        <time>2014-03-21T15:16:15Z</time>
      </trkpt>
      <trkpt lat="47.63599" lon="-2.35444">
        <ele>74</ele>
        <time>2014-03-21T15:16:45Z</time>
      </trkpt>
      <trkpt lat="47.63592" lon="-2.35395">
        <ele>74</ele>
        <time>2014-03-21T15:17:15Z</time>
      </trkpt>
      <trkpt lat="47.63616" lon="-2.35366">
        <ele>70</ele>
        <time>2014-03-21T15:17:46Z</time>
      </trkpt>
    </trkseg>
  </trk>
</gpx>